createdAt,value
2022-09-30T00:00:14.386Z,10.06
2022-09-30T00:05:18.727Z,9.95
2022-09-30T00:10:22.018Z,9.80
2022-09-30T00:15:29.185Z,9.71
2022-09-30T00:20:33.540Z,9.71
2022-09-30T00:25:37.899Z,9.75
2022-09-30T00:30:43.340Z,9.75
2022-09-30T00:35:47.406Z,9.81
2022-09-30T00:40:52.473Z,9.79
2022-09-30T00:46:01.729Z,9.78
2022-09-30T00:51:08.686Z,9.72
2022-09-30T00:56:15.249Z,9.71
2022-09-30T01:01:20.907Z,9.64
2022-09-30T01:06:25.710Z,9.57
2022-09-30T01:11:29.394Z,9.42
2022-09-30T01:16:46.560Z,9.58
2022-09-30T01:22:13.509Z,9.55
2022-09-30T01:27:50.310Z,9.65
2022-09-30T01:33:19.405Z,9.61
2022-09-30T01:38:29.616Z,9.68
2022-09-30T01:43:44.786Z,9.68
2022-09-30T01:48:56.461Z,9.75
2022-09-30T01:54:04.516Z,9.78
2022-09-30T01:59:13.652Z,9.76
2022-09-30T02:04:22.643Z,9.83
2022-09-30T02:09:30.803Z,9.89
2022-09-30T02:14:41.106Z,9.88
2022-09-30T02:20:03.567Z,9.95
2022-09-30T02:25:09.772Z,9.99
2022-09-30T02:30:15.101Z,9.90
2022-09-30T02:35:26.940Z,9.84
2022-09-30T02:40:37.030Z,9.87
2022-09-30T02:45:50.391Z,9.82
2022-09-30T02:51:01.797Z,9.95
2022-09-30T02:56:18.885Z,9.90
2022-09-30T03:01:22.366Z,9.98
2022-09-30T03:06:27.779Z,10.11
2022-09-30T03:11:32.629Z,10.09
2022-09-30T03:16:46.291Z,9.99
2022-09-30T03:22:07.764Z,10.01
2022-09-30T03:27:24.141Z,10.19
2022-09-30T03:32:43.600Z,10.31
2022-09-30T03:37:59.352Z,10.32
2022-09-30T03:43:07.289Z,10.20
2022-09-30T03:48:13.277Z,10.17
2022-09-30T03:53:18.380Z,10.19
2022-09-30T03:58:23.525Z,10.17
2022-09-30T04:03:28.600Z,10.25
2022-09-30T04:08:34.051Z,10.26
2022-09-30T04:13:37.609Z,10.14
2022-09-30T04:18:41.788Z,10.34
2022-09-30T04:23:46.756Z,10.60
2022-09-30T04:28:50.556Z,10.77
2022-09-30T04:33:53.983Z,10.88
2022-09-30T04:38:58.754Z,11.04
2022-09-30T04:44:06.233Z,11.29
2022-09-30T04:49:10.276Z,11.58
2022-09-30T04:54:16.667Z,11.75
2022-09-30T04:59:20.731Z,12.09
2022-09-30T05:04:24.201Z,12.29
2022-09-30T05:09:29.068Z,12.19
2022-09-30T05:14:33.433Z,12.41
2022-09-30T05:19:37.508Z,12.19
2022-09-30T05:24:42.401Z,11.99
2022-09-30T05:29:46.813Z,12.20
2022-09-30T05:34:50.104Z,12.07
2022-09-30T05:39:55.379Z,12.03
2022-09-30T05:44:58.728Z,12.12
2022-09-30T05:50:02.707Z,12.96
2022-09-30T05:55:09.089Z,13.54
2022-09-30T06:00:13.701Z,14.06
2022-09-30T06:05:16.795Z,14.42
2022-09-30T06:10:21.696Z,15.44
2022-09-30T06:15:25.798Z,16.81
2022-09-30T06:20:29.828Z,17.41
2022-09-30T06:25:35.934Z,17.20
2022-09-30T06:30:40.043Z,16.42
2022-09-30T06:35:44.500Z,16.00
2022-09-30T06:40:51.268Z,16.95
2022-09-30T06:46:06.361Z,18.78
2022-09-30T06:51:15.470Z,17.97
2022-09-30T06:56:21.591Z,17.37
2022-09-30T07:01:26.272Z,17.16
2022-09-30T07:06:30.321Z,16.68
2022-09-30T07:11:35.206Z,16.38
2022-09-30T07:16:40.695Z,16.10
2022-09-30T07:21:44.842Z,15.66
2022-09-30T07:26:50.281Z,15.71
2022-09-30T07:31:55.298Z,16.12
2022-09-30T07:36:59.585Z,17.30
2022-09-30T07:42:06.509Z,19.38
2022-09-30T07:47:11.381Z,20.85
2022-09-30T07:52:15.100Z,20.94
2022-09-30T07:57:22.412Z,21.17
2022-09-30T08:02:25.801Z,20.52
2022-09-30T08:07:30.057Z,20.47
2022-09-30T08:12:35.396Z,25.20
2022-09-30T08:17:39.700Z,28.30
2022-09-30T08:22:42.997Z,27.58
2022-09-30T08:27:48.482Z,27.26
2022-09-30T08:32:51.853Z,27.07
2022-09-30T08:37:56.346Z,24.78
2022-09-30T08:43:17.428Z,23.06
2022-09-30T08:48:35.795Z,23.29
2022-09-30T08:53:43.598Z,23.13
2022-09-30T08:58:52.399Z,23.16
2022-09-30T09:03:56.335Z,22.21
2022-09-30T09:09:21.498Z,21.50
2022-09-30T09:14:40.740Z,20.54
2022-09-30T09:19:49.660Z,20.60
2022-09-30T09:24:55.313Z,20.43
2022-09-30T09:30:08.396Z,19.68
2022-09-30T09:35:21.198Z,19.39
2022-09-30T09:40:35.179Z,19.68
2022-09-30T09:45:47.134Z,19.42
2022-09-30T09:51:04.172Z,19.73
2022-09-30T09:56:19.830Z,19.92
2022-09-30T10:01:34.135Z,19.74
2022-09-30T10:06:46.501Z,19.50
2022-09-30T10:11:49.833Z,19.35
2022-09-30T10:16:59.755Z,19.39
2022-09-30T10:22:20.711Z,19.12
2022-09-30T10:27:32.720Z,19.23
2022-09-30T10:32:37.761Z,18.92
2022-09-30T10:37:52.758Z,18.70
2022-09-30T10:42:57.062Z,18.86
2022-09-30T10:48:05.399Z,18.77
2022-09-30T10:53:17.163Z,19.19
2022-09-30T10:58:32.428Z,18.70
2022-09-30T11:03:46.705Z,18.63
2022-09-30T11:08:58.535Z,18.91
2022-09-30T11:14:07.059Z,18.94
2022-09-30T11:19:23.358Z,18.77
2022-09-30T11:24:35.703Z,18.80
2022-09-30T11:29:53.499Z,19.10
2022-09-30T11:35:10.303Z,19.06
2022-09-30T11:40:32.777Z,19.17
2022-09-30T11:45:57.832Z,18.81
2022-09-30T11:51:17.995Z,18.59
2022-09-30T11:56:34.846Z,18.13
2022-09-30T12:01:45.603Z,18.40
2022-09-30T12:06:56.405Z,18.35
2022-09-30T12:12:05.092Z,18.18
2022-09-30T12:17:21.299Z,18.01
2022-09-30T12:22:31.281Z,18.07
2022-09-30T12:27:41.497Z,18.20
2022-09-30T12:33:39.169Z,18.22
2022-09-30T12:39:00.405Z,18.16
2022-09-30T12:44:41.114Z,18.13
2022-09-30T12:49:46.079Z,18.70
2022-09-30T12:54:55.380Z,19.29
2022-09-30T13:00:04.686Z,19.49
2022-09-30T13:05:54.927Z,19.73
2022-09-30T13:11:05.993Z,19.71
2022-09-30T13:16:12.149Z,19.78
2022-09-30T13:21:26.025Z,19.83
2022-09-30T13:26:37.472Z,19.84
2022-09-30T13:32:06.334Z,20.30
2022-09-30T13:37:40.570Z,20.26
2022-09-30T13:42:57.285Z,20.08
2022-09-30T13:48:11.982Z,19.69
2022-09-30T13:53:23.655Z,19.19
2022-09-30T13:59:05.111Z,18.76
2022-09-30T14:04:28.324Z,18.56
2022-09-30T14:09:54.395Z,18.21
2022-09-30T14:15:23.540Z,17.97
2022-09-30T14:20:44.755Z,17.75
2022-09-30T14:25:59.283Z,17.42
2022-09-30T14:31:13.353Z,17.09
2022-09-30T14:36:20.145Z,16.94
2022-09-30T14:41:26.202Z,16.72
2022-09-30T14:46:37.094Z,16.65
2022-09-30T14:51:45.345Z,16.57
2022-09-30T14:56:50.809Z,16.39
2022-09-30T15:02:01.720Z,16.36
2022-09-30T15:07:12.437Z,16.34
2022-09-30T15:12:19.997Z,16.31
2022-09-30T15:17:29.051Z,16.28
2022-09-30T15:22:33.956Z,16.19
2022-09-30T15:27:39.918Z,16.08
2022-09-30T15:32:50.357Z,16.04
2022-09-30T15:38:07.593Z,15.98
2022-09-30T15:43:17.005Z,15.96
2022-09-30T15:48:38.981Z,15.84
2022-09-30T15:53:50.478Z,15.73
2022-09-30T15:59:01.423Z,15.55
2022-09-30T16:04:14.452Z,15.51
2022-09-30T16:09:29.437Z,15.56
2022-09-30T16:14:37.776Z,15.47
2022-09-30T16:19:45.197Z,15.47
2022-09-30T16:24:50.675Z,15.37
2022-09-30T16:29:55.734Z,15.33
2022-09-30T16:35:03.971Z,15.37
2022-09-30T16:40:20.448Z,15.41
2022-09-30T16:45:26.592Z,15.29
2022-09-30T16:50:41.360Z,15.30
2022-09-30T16:55:46.223Z,15.27
2022-09-30T17:00:51.061Z,15.18
2022-09-30T17:05:58.067Z,15.26
2022-09-30T17:11:02.228Z,15.28
2022-09-30T17:16:07.072Z,15.23
2022-09-30T17:21:13.771Z,15.24
2022-09-30T17:26:18.697Z,15.22
2022-09-30T17:31:23.881Z,15.17
2022-09-30T17:36:30.460Z,15.23
2022-09-30T17:41:52.480Z,15.20
2022-09-30T17:47:01.712Z,15.17
2022-09-30T17:52:08.468Z,15.32
2022-09-30T17:57:13.359Z,15.32
2022-09-30T18:02:18.502Z,15.29
2022-09-30T18:07:26.952Z,15.22
2022-09-30T18:12:34.699Z,15.21
2022-09-30T18:17:46.993Z,15.21
2022-09-30T18:22:52.508Z,15.25
2022-09-30T18:28:01.543Z,15.15
2022-09-30T18:33:08.243Z,15.25
2022-09-30T18:38:15.502Z,15.27
2022-09-30T18:43:22.730Z,15.20
2022-09-30T18:48:28.192Z,15.24
2022-09-30T18:53:34.736Z,15.27
2022-09-30T18:58:40.317Z,15.17
2022-09-30T19:03:44.701Z,15.21
2022-09-30T19:08:51.283Z,15.30
2022-09-30T19:13:56.970Z,15.40
2022-09-30T19:19:05.557Z,15.48
2022-09-30T19:24:14.153Z,15.57
2022-09-30T19:29:19.713Z,15.52
2022-09-30T19:34:31.714Z,15.50
2022-09-30T19:39:45.576Z,15.51
2022-09-30T19:44:49.862Z,15.45
2022-09-30T19:49:54.489Z,15.43
2022-09-30T19:55:11.868Z,15.42
2022-09-30T20:00:19.912Z,15.25
2022-09-30T20:05:25.141Z,15.25
2022-09-30T20:10:30.200Z,15.15
2022-09-30T20:15:52.719Z,15.08
2022-09-30T20:20:58.132Z,14.91
2022-09-30T20:26:03.848Z,14.99
2022-09-30T20:31:10.304Z,14.93
2022-09-30T20:36:14.419Z,14.86
2022-09-30T20:41:20.271Z,14.87
2022-09-30T20:46:26.713Z,14.82
2022-09-30T20:51:32.453Z,14.84
2022-09-30T20:57:05.361Z,14.86
2022-09-30T21:02:02.278Z,14.81
2022-09-30T21:07:07.693Z,14.76
2022-09-30T21:12:14.659Z,14.70
2022-09-30T21:17:18.970Z,14.68
2022-09-30T21:22:22.395Z,14.49
2022-09-30T21:27:28.039Z,14.67
2022-09-30T21:32:31.373Z,14.69
2022-09-30T21:37:35.518Z,14.55
2022-09-30T21:42:40.369Z,14.54
2022-09-30T21:47:44.474Z,14.45
2022-09-30T21:52:49.337Z,14.46
2022-09-30T21:57:54.911Z,14.54
2022-09-30T22:02:59.327Z,14.53
2022-09-30T22:08:03.834Z,14.42
2022-09-30T22:13:08.612Z,14.52
2022-09-30T22:18:13.681Z,14.55
2022-09-30T22:23:17.015Z,14.53
2022-09-30T22:28:22.710Z,14.48
2022-09-30T22:33:43.569Z,14.53
2022-09-30T22:38:47.707Z,14.49
2022-09-30T22:43:52.434Z,14.45
2022-09-30T22:48:56.562Z,14.49
2022-09-30T22:54:01.221Z,14.55
2022-09-30T22:59:07.288Z,14.55
2022-09-30T23:04:10.589Z,14.51
2022-09-30T23:09:13.966Z,14.50
2022-09-30T23:14:18.705Z,14.55
2022-09-30T23:19:22.969Z,14.52
2022-09-30T23:24:26.300Z,14.49
2022-09-30T23:29:31.846Z,14.53
2022-09-30T23:34:35.130Z,14.37
2022-09-30T23:39:39.276Z,14.34
2022-09-30T23:44:44.130Z,14.39
2022-09-30T23:49:48.330Z,14.37
2022-09-30T23:54:51.831Z,14.38
2022-09-30T23:59:57.844Z,14.38
